ePrivacy and GPDR Cookie Consent by Cookie Consent
EmailTwitter


Surface observations / United Kingdom / EGTE (03839)

Regions: Quebec | Canada | USA | Europe | France | UK | Elsewhere
Station
Display
Info & Location for EGTE (03839) | Help decoding METAR

Weather Conditions observed on 2021/04/16 at 01:20 UTC at EXETER AIRPORT, UK (EGTE)

Temperature: 0.0 Celsius.

Dewpoint: -1.0 Celsius.

Relative Humidity: 93%

Winds: Northwest at 4 km/h or 2 knots.

Mean Sea level Pressure: 103.10 kilopascals.

Coded METAR:

EGTE 160120Z 30002KT CAVOK 00/M01 Q1031=